createdAt,value
2023-05-16T00:01:18.274Z,12.36
2023-05-16T00:06:18.991Z,12.30
2023-05-16T00:11:21.852Z,12.20
2023-05-16T00:16:22.654Z,12.32
2023-05-16T00:21:23.821Z,12.21
2023-05-16T00:26:26.288Z,12.33
2023-05-16T00:31:27.011Z,12.28
2023-05-16T00:36:27.710Z,12.08
2023-05-16T00:41:29.894Z,12.09
2023-05-16T00:46:30.786Z,12.04
2023-05-16T00:51:31.952Z,11.99
2023-05-16T00:56:34.668Z,12.00
2023-05-16T01:01:37.560Z,12.05
2023-05-16T01:06:38.263Z,11.95
2023-05-16T01:11:52.161Z,11.94
2023-05-16T01:17:01.078Z,11.88
2023-05-16T01:22:07.355Z,11.82
2023-05-16T01:27:10.425Z,11.83
2023-05-16T01:32:11.156Z,11.81
2023-05-16T01:37:18.397Z,11.81
2023-05-16T01:42:25.444Z,11.73
2023-05-16T01:47:27.885Z,11.57
2023-05-16T01:52:36.250Z,11.54
2023-05-16T01:57:39.852Z,11.44
2023-05-16T02:02:40.668Z,11.45
2023-05-16T02:07:43.093Z,11.37
2023-05-16T02:12:45.286Z,11.43
2023-05-16T02:17:47.551Z,11.47
2023-05-16T02:22:50.178Z,11.54
2023-05-16T02:27:52.234Z,11.51
2023-05-16T02:32:54.189Z,11.52
2023-05-16T02:37:55.441Z,11.46
2023-05-16T02:42:59.898Z,11.53
2023-05-16T02:48:00.792Z,11.63
2023-05-16T02:53:02.486Z,11.67
2023-05-16T02:58:04.578Z,11.60
2023-05-16T03:03:05.741Z,11.75
2023-05-16T03:08:06.854Z,11.77
2023-05-16T03:13:09.582Z,11.83
2023-05-16T03:18:10.452Z,11.89
2023-05-16T03:23:11.164Z,11.94
2023-05-16T03:28:15.213Z,11.89
2023-05-16T03:33:16.246Z,11.83
2023-05-16T03:38:17.169Z,11.89
2023-05-16T03:43:19.285Z,11.97
2023-05-16T03:48:20.047Z,11.99
2023-05-16T03:53:21.044Z,12.04
2023-05-16T03:58:23.823Z,12.13
2023-05-16T04:03:28.626Z,12.19
2023-05-16T04:08:29.819Z,12.29
2023-05-16T04:13:31.896Z,12.39
2023-05-16T04:18:32.647Z,12.79
2023-05-16T04:23:33.388Z,12.73
2023-05-16T04:28:35.961Z,12.61
2023-05-16T04:33:37.274Z,12.53
2023-05-16T04:38:38.250Z,12.45
2023-05-16T04:43:40.687Z,12.45
2023-05-16T04:48:41.349Z,12.39
2023-05-16T04:53:42.026Z,12.18
2023-05-16T04:58:44.092Z,12.27
2023-05-16T05:03:46.923Z,12.03
2023-05-16T05:08:48.958Z,12.09
2023-05-16T05:13:52.996Z,12.04
2023-05-16T05:18:53.971Z,11.79
2023-05-16T05:23:54.746Z,11.74
2023-05-16T05:29:04.759Z,11.56
2023-05-16T05:34:06.293Z,11.63
2023-05-16T05:39:07.181Z,11.64
2023-05-16T05:44:09.279Z,11.49
2023-05-16T05:49:10.191Z,11.32
2023-05-16T05:54:11.158Z,11.26
2023-05-16T05:59:13.213Z,11.42
2023-05-16T06:04:13.911Z,11.19
2023-05-16T06:09:15.143Z,10.91
2023-05-16T06:14:17.191Z,10.88
2023-05-16T06:19:17.953Z,10.75
2023-05-16T06:24:18.725Z,10.63
2023-05-16T06:29:20.805Z,10.36
2023-05-16T06:34:23.925Z,10.40
2023-05-16T06:39:24.608Z,10.65
2023-05-16T06:44:27.105Z,10.76
2023-05-16T06:49:28.027Z,10.55
2023-05-16T06:54:28.760Z,10.52
2023-05-16T06:59:30.860Z,10.57
2023-05-16T07:04:31.850Z,10.63
2023-05-16T07:09:32.817Z,10.45
2023-05-16T07:14:34.894Z,10.34
2023-05-16T07:19:35.648Z,10.36
2023-05-16T07:24:37.131Z,10.23
2023-05-16T07:29:39.383Z,10.15
2023-05-16T07:34:40.103Z,10.19
2023-05-16T07:39:41.092Z,10.08
2023-05-16T07:44:43.128Z,10.03
2023-05-16T07:49:43.876Z,10.18
2023-05-16T07:54:44.728Z,10.16
2023-05-16T07:59:47.030Z,10.26
2023-05-16T08:04:48.885Z,10.24
2023-05-16T08:09:49.623Z,10.21
2023-05-16T08:14:52.031Z,10.11
2023-05-16T08:19:52.772Z,10.28
2023-05-16T08:24:57.704Z,10.36
2023-05-16T08:29:59.773Z,10.14
2023-05-16T08:35:01.071Z,10.27
2023-05-16T08:40:01.780Z,10.23
2023-05-16T08:45:05.478Z,10.27
2023-05-16T08:50:10.277Z,10.34
2023-05-16T08:55:12.619Z,10.35
2023-05-16T09:00:16.224Z,10.29
2023-05-16T09:05:18.934Z,10.25
2023-05-16T09:10:19.710Z,10.23
2023-05-16T09:15:22.068Z,10.31
2023-05-16T09:20:22.809Z,10.46
2023-05-16T09:25:31.099Z,10.46
2023-05-16T09:30:35.266Z,10.51
2023-05-16T09:35:44.961Z,10.73
2023-05-16T09:40:47.346Z,10.67
2023-05-16T09:45:50.433Z,10.68
2023-05-16T09:50:54.369Z,10.75
2023-05-16T09:56:02.961Z,10.90
2023-05-16T10:01:06.032Z,10.78
2023-05-16T10:06:07.874Z,10.69
2023-05-16T10:11:08.660Z,10.81
2023-05-16T10:16:13.396Z,11.00
2023-05-16T10:21:16.587Z,11.16
2023-05-16T10:26:18.509Z,11.23
2023-05-16T10:31:22.015Z,11.19
2023-05-16T10:36:22.919Z,11.04
2023-05-16T10:41:23.815Z,10.94
2023-05-16T10:46:29.190Z,10.88
2023-05-16T10:51:38.710Z,11.05
2023-05-16T10:56:39.881Z,11.17
2023-05-16T11:01:42.152Z,11.15
2023-05-16T11:06:54.719Z,11.50
2023-05-16T11:11:57.674Z,12.33
2023-05-16T11:17:04.486Z,12.54
2023-05-16T11:22:27.144Z,12.65
2023-05-16T11:27:30.164Z,12.71
2023-05-16T11:32:35.131Z,12.26
2023-05-16T11:37:37.829Z,12.24
2023-05-16T11:42:40.553Z,12.64
2023-05-16T11:47:45.688Z,13.40
2023-05-16T11:52:48.208Z,13.61
2023-05-16T11:57:49.045Z,13.71
2023-05-16T12:02:52.138Z,13.78
2023-05-16T12:07:54.419Z,13.86
2023-05-16T12:12:56.308Z,13.81
2023-05-16T12:17:58.980Z,14.25
2023-05-16T12:22:59.921Z,13.80
2023-05-16T12:28:02.334Z,13.84
2023-05-16T12:33:09.355Z,13.96
2023-05-16T12:38:14.094Z,14.02
2023-05-16T12:43:16.868Z,13.35
2023-05-16T12:48:19.325Z,13.21
2023-05-16T12:53:20.212Z,12.88
2023-05-16T12:58:21.110Z,13.00
2023-05-16T13:03:23.214Z,13.22
2023-05-16T13:08:24.034Z,12.96
2023-05-16T13:13:35.343Z,12.74
2023-05-16T13:18:38.439Z,12.72
2023-05-16T13:23:39.138Z,12.53
2023-05-16T13:28:39.890Z,12.70
2023-05-16T13:33:41.955Z,12.83
2023-05-16T13:38:42.758Z,12.73
2023-05-16T13:43:43.439Z,13.15
2023-05-16T13:48:45.483Z,13.26
2023-05-16T13:53:46.206Z,13.51
2023-05-16T14:03:54.903Z,13.14
2023-05-16T14:08:55.851Z,13.04
2023-05-16T14:13:56.873Z,12.96
2023-05-16T14:18:59.033Z,12.90
2023-05-16T14:24:00.111Z,12.76
2023-05-16T14:29:00.838Z,12.65
2023-05-16T14:34:03.072Z,12.51
2023-05-16T14:39:04.190Z,12.44
2023-05-16T14:44:05.245Z,12.27
2023-05-16T14:49:07.376Z,12.35
2023-05-16T14:54:08.572Z,12.21
2023-05-16T14:59:09.368Z,12.04
2023-05-16T15:04:11.552Z,11.97
2023-05-16T15:09:12.311Z,12.04
2023-05-16T15:14:13.405Z,12.09
2023-05-16T15:19:15.522Z,12.11
2023-05-16T15:24:16.686Z,12.14
2023-05-16T15:29:20.064Z,12.11
2023-05-16T15:34:22.203Z,12.19
2023-05-16T15:39:25.834Z,12.25
2023-05-16T15:44:26.553Z,12.38
2023-05-16T15:49:28.865Z,12.60
2023-05-16T15:54:29.724Z,12.93
2023-05-16T15:59:30.421Z,13.27
2023-05-16T16:04:32.703Z,13.52
2023-05-16T16:09:33.547Z,13.65
2023-05-16T16:14:34.333Z,13.53
2023-05-16T16:19:36.538Z,13.60
2023-05-16T16:24:37.285Z,13.70
2023-05-16T16:29:37.982Z,13.70
2023-05-16T16:34:40.063Z,14.08
2023-05-16T16:39:40.878Z,14.69
2023-05-16T16:44:41.580Z,14.64
2023-05-16T16:49:43.642Z,14.48
2023-05-16T16:54:45.114Z,15.12
2023-05-16T16:59:46.669Z,16.85
2023-05-16T17:04:49.179Z,17.19
2023-05-16T17:09:49.944Z,18.20
2023-05-16T17:14:51.820Z,18.39
2023-05-16T17:19:54.195Z,16.74
2023-05-16T17:24:54.901Z,15.69
2023-05-16T17:29:55.652Z,15.18
2023-05-16T17:34:57.687Z,14.59
2023-05-16T17:39:58.584Z,15.48
2023-05-16T17:45:03.545Z,16.36
2023-05-16T17:50:08.768Z,15.61
2023-05-16T17:55:11.115Z,15.28
2023-05-16T18:00:14.973Z,14.90
2023-05-16T18:05:17.414Z,14.64
2023-05-16T18:10:18.299Z,14.30
2023-05-16T18:15:19.530Z,14.31
2023-05-16T18:20:21.945Z,14.30
2023-05-16T18:25:22.776Z,14.12
2023-05-16T18:30:23.604Z,13.92
2023-05-16T18:35:27.603Z,13.88
2023-05-16T18:40:28.872Z,13.74
2023-05-16T18:45:30.233Z,13.55
2023-05-16T18:50:32.701Z,13.33
2023-05-16T18:55:33.870Z,13.00
2023-05-16T19:00:34.715Z,12.69
2023-05-16T19:05:37.465Z,12.48
2023-05-16T19:10:41.552Z,12.18
2023-05-16T19:15:42.287Z,11.96
2023-05-16T19:20:45.584Z,11.71
2023-05-16T19:25:49.033Z,11.68
2023-05-16T19:30:49.908Z,11.80
2023-05-16T19:35:53.712Z,11.60
2023-05-16T19:40:54.685Z,11.23
2023-05-16T19:45:55.427Z,11.20
2023-05-16T19:50:57.541Z,11.18
2023-05-16T19:55:58.412Z,11.00
2023-05-16T20:00:59.144Z,11.01
2023-05-16T20:06:10.200Z,10.93
2023-05-16T20:11:12.017Z,11.00
2023-05-16T20:16:12.790Z,11.03
2023-05-16T20:21:14.825Z,11.09
2023-05-16T20:26:15.773Z,10.99
2023-05-16T20:31:16.608Z,10.87
2023-05-16T20:36:18.816Z,10.77
2023-05-16T20:41:19.534Z,10.67
2023-05-16T20:46:20.282Z,10.51
2023-05-16T20:51:22.423Z,10.51
2023-05-16T20:56:23.530Z,10.39
2023-05-16T21:01:24.256Z,10.25
2023-05-16T21:06:26.330Z,10.15
2023-05-16T21:11:27.634Z,10.09
2023-05-16T21:16:29.883Z,9.93
2023-05-16T21:21:32.021Z,9.90
2023-05-16T21:26:32.723Z,9.75
2023-05-16T21:31:33.433Z,9.67
2023-05-16T21:36:35.863Z,9.62
2023-05-16T21:41:36.596Z,9.55
2023-05-16T21:46:37.372Z,9.44
2023-05-16T21:51:39.467Z,9.40
2023-05-16T21:56:40.233Z,9.30
2023-05-16T22:01:40.957Z,9.27
2023-05-16T22:06:43.089Z,9.21
2023-05-16T22:11:43.819Z,9.07
2023-05-16T22:16:44.573Z,9.08
2023-05-16T22:21:46.602Z,8.84
2023-05-16T22:26:47.461Z,8.93
2023-05-16T22:31:48.195Z,8.88
2023-05-16T22:36:50.270Z,8.77
2023-05-16T22:41:51.493Z,8.73
2023-05-16T22:46:52.196Z,8.70
2023-05-16T22:51:54.243Z,8.67
2023-05-16T22:56:54.968Z,8.62
2023-05-16T23:01:55.657Z,8.49
2023-05-16T23:06:57.687Z,8.46
2023-05-16T23:11:59.200Z,8.43
2023-05-16T23:16:59.994Z,8.35
2023-05-16T23:22:03.436Z,8.28
2023-05-16T23:27:04.159Z,8.10
2023-05-16T23:32:05.211Z,8.09
2023-05-16T23:37:07.315Z,8.05
2023-05-16T23:42:08.112Z,7.97
2023-05-16T23:47:09.378Z,7.86
2023-05-16T23:52:11.417Z,7.90
2023-05-16T23:57:12.124Z,7.82
